Time;durP1;ratioP1;P1;durP2;ratioP2;P2;SDS_P1;SDS_P2;PMS_P1;PMS_P2;Temp;Humidity;BMP_temperature;BMP_pressure;BME280_temperature;BME280_humidity;BME280_pressure;Samples;Min_cycle;Max_cycle;Signal;HPM_P1;HPM_P2
2023/09/10 00:02:19;;;;;;;9.97;9.27;;;;;;;15.04;61.24;93237.19;5071819;28;20197;-84
2023/09/10 00:04:44;;;;;;;10.17;9.23;;;;;;;15.11;61.15;93229.72;5070451;28;20192;-85
2023/09/10 00:07:10;;;;;;;10.47;9.23;;;;;;;15.01;62.32;93238.56;5071154;28;20303;-80
2023/09/10 00:09:35;;;;;;;11.17;10.40;;;;;;;14.94;62.34;93242.63;5071186;28;20177;-85
2023/09/10 00:12:01;;;;;;;9.80;9.10;;;;;;;14.97;62.10;93239.44;5070106;28;20225;-84
2023/09/10 00:14:26;;;;;;;9.73;9.03;;;;;;;15.02;61.88;93234.09;5071493;28;21597;-84
2023/09/10 00:16:51;;;;;;;9.77;9.17;;;;;;;14.86;64.49;93230.94;5073907;28;20221;-85
2023/09/10 00:19:17;;;;;;;10.73;9.70;;;;;;;14.89;64.47;93243.50;5070692;28;20193;-81
2023/09/10 00:21:42;;;;;;;10.63;9.87;;;;;;;14.72;64.10;93230.13;5070579;28;20213;-83
2023/09/10 00:24:10;;;;;;;9.90;9.27;;;;;;;14.71;64.46;93240.94;5071483;28;20173;-84
2023/09/10 00:26:36;;;;;;;10.60;9.73;;;;;;;14.66;64.91;93241.00;5070694;28;20223;-85
2023/09/10 00:29:02;;;;;;;11.53;9.87;;;;;;;14.55;65.11;93237.75;5070286;28;20181;-84
2023/09/10 00:31:27;;;;;;;10.87;9.87;;;;;;;14.32;68.14;93223.66;5056862;28;20328;-85
2023/09/10 00:33:53;;;;;;;10.97;9.90;;;;;;;14.51;66.11;93225.50;5050764;28;20186;-85
2023/09/10 00:36:18;;;;;;;11.20;10.30;;;;;;;14.40;66.96;93215.13;5062166;28;20221;-84
2023/09/10 00:38:43;;;;;;;10.77;9.97;;;;;;;14.60;66.31;93223.75;5070875;28;20191;-84
2023/09/10 00:41:09;;;;;;;10.73;10.03;;;;;;;14.53;65.51;93213.59;5070285;28;20235;-85
2023/09/10 00:43:35;;;;;;;10.40;9.77;;;;;;;14.42;65.58;93223.50;5070861;28;20189;-85
2023/09/10 00:46:02;;;;;;;10.03;9.23;;;;;;;14.40;65.97;93217.75;5070433;28;20235;-83
2023/09/10 00:48:27;;;;;;;9.47;8.87;;;;;;;14.39;66.94;93218.03;5069794;28;20259;-85
2023/09/10 00:50:53;;;;;;;9.53;9.03;;;;;;;14.26;66.73;93209.03;5057414;28;20229;-85
2023/09/10 00:53:19;;;;;;;9.80;9.07;;;;;;;14.24;67.75;93219.03;5070759;28;20174;-85
2023/09/10 00:55:47;;;;;;;9.73;8.97;;;;;;;14.34;69.14;93220.72;5051141;28;20225;-83
2023/09/10 00:58:12;;;;;;;10.23;9.63;;;;;;;14.31;69.22;93227.34;5052089;28;20186;-80
2023/09/10 01:00:42;;;;;;;10.00;9.33;;;;;;;14.29;69.49;93223.44;5056263;28;20231;-85
2023/09/10 01:03:07;;;;;;;9.10;8.57;;;;;;;14.15;69.46;93231.22;5070476;28;20193;-83
2023/09/10 01:05:34;;;;;;;9.67;9.13;;;;;;;14.05;68.03;93228.75;5069107;28;20241;-84
2023/09/10 01:08:02;;;;;;;9.93;9.13;;;;;;;13.99;67.71;93214.13;5070575;28;20249;-85
2023/09/10 01:10:38;;;;;;;10.40;9.73;;;;;;;14.09;67.56;93226.31;5065244;28;20285;-85
2023/09/10 01:13:09;;;;;;;10.17;9.20;;;;;;;14.04;67.84;93229.81;5049994;28;20288;-85
2023/09/10 01:15:46;;;;;;;10.67;9.33;;;;;;;13.94;68.27;93210.78;5048486;28;20244;-85
2023/09/10 01:18:29;;;;;;;10.20;9.50;;;;;;;13.95;69.59;93222.84;5046607;28;20186;-85
2023/09/10 01:21:06;;;;;;;8.80;8.30;;;;;;;14.13;67.47;93220.22;5039999;28;20225;-84
2023/09/10 01:24:09;;;;;;;9.40;8.60;;;;;;;14.03;68.86;93217.75;5049648;28;20182;-88
2023/09/10 01:26:39;;;;;;;9.93;9.03;;;;;;;14.02;68.99;93205.66;5063561;28;20235;-85
2023/09/10 01:29:06;;;;;;;9.57;8.87;;;;;;;13.98;69.34;93202.06;5069945;28;20233;-85
2023/09/10 01:31:35;;;;;;;10.87;9.07;;;;;;;14.07;69.65;93202.97;5069469;28;20225;-84
2023/09/10 01:34:03;;;;;;;8.50;7.90;;;;;;;13.91;69.91;93195.63;5069480;28;20181;-84
2023/09/10 01:36:36;;;;;;;8.93;8.33;;;;;;;13.98;69.40;93202.06;5069219;28;20215;-84
2023/09/10 01:39:20;;;;;;;9.23;8.63;;;;;;;13.81;69.03;93211.50;5069949;28;20189;-84
2023/09/10 01:41:47;;;;;;;8.60;7.90;;;;;;;13.82;69.89;93215.69;5069403;28;20229;-85
2023/09/10 01:44:14;;;;;;;9.13;8.60;;;;;;;13.78;68.56;93217.31;5069917;28;20253;-85
2023/09/10 01:46:40;;;;;;;9.83;9.20;;;;;;;13.83;69.02;93207.53;5068688;28;20898;-82
2023/09/10 01:49:08;;;;;;;9.40;8.90;;;;;;;13.86;67.44;93217.47;5069711;28;21192;-85
2023/09/10 01:51:33;;;;;;;10.57;9.93;;;;;;;13.72;69.42;93205.31;5068959;28;20220;-84
2023/09/10 01:53:59;;;;;;;9.30;8.80;;;;;;;13.78;69.74;93219.94;5068748;28;20182;-85
2023/09/10 01:56:24;;;;;;;8.40;8.00;;;;;;;13.73;69.92;93220.78;5069533;28;20217;-83
2023/09/10 01:58:49;;;;;;;10.03;9.27;;;;;;;13.76;69.36;93225.47;5070650;28;20181;-84
2023/09/10 02:01:15;;;;;;;9.80;8.77;;;;;;;13.70;70.07;93217.94;5069142;28;20245;-85
2023/09/10 02:03:41;;;;;;;9.40;8.83;;;;;;;13.72;68.80;93200.84;5069047;28;20189;-85
2023/09/10 02:06:06;;;;;;;9.67;9.07;;;;;;;13.81;67.47;93222.78;5058912;28;20252;-85
2023/09/10 02:08:31;;;;;;;9.23;8.77;;;;;;;13.75;70.25;93237.03;5048391;28;20178;-85
2023/09/10 02:10:57;;;;;;;9.77;9.27;;;;;;;13.64;71.16;93246.09;5049177;28;20229;-85
2023/09/10 02:13:22;;;;;;;8.47;7.80;;;;;;;13.72;70.32;93234.97;5047565;28;20179;-85
2023/09/10 02:15:48;;;;;;;9.83;9.23;;;;;;;13.75;69.32;93244.91;5056528;28;20249;-85
2023/09/10 02:18:13;;;;;;;9.67;8.87;;;;;;;13.78;68.62;93239.09;5068923;28;20212;-85
2023/09/10 02:20:38;;;;;;;9.30;8.70;;;;;;;13.64;68.26;93237.44;5068826;28;20232;-84
2023/09/10 02:23:04;;;;;;;10.30;9.60;;;;;;;13.61;69.80;93233.53;5069341;28;20201;-85
2023/09/10 02:25:32;;;;;;;10.37;9.60;;;;;;;13.62;71.72;93239.56;5067532;28;20220;-85
2023/09/10 02:27:59;;;;;;;9.63;9.13;;;;;;;13.72;69.81;93240.22;5069176;28;20193;-82
2023/09/10 02:30:25;;;;;;;11.80;10.53;;;;;;;13.51;71.70;93233.66;5068253;28;20250;-85
2023/09/10 02:32:50;;;;;;;11.37;10.43;;;;;;;13.44;71.80;93233.22;5069015;28;20197;-86
2023/09/10 02:35:16;;;;;;;12.60;10.47;;;;;;;13.46;72.15;93241.59;5065590;28;20235;-85
2023/09/10 02:37:41;;;;;;;11.10;10.30;;;;;;;13.37;72.28;93221.50;5048600;28;20221;-79
2023/09/10 02:40:08;;;;;;;10.20;9.50;;;;;;;13.38;73.94;93229.09;5048921;28;20190;-85
2023/09/10 02:42:33;;;;;;;12.90;11.33;;;;;;;13.42;74.78;93229.28;5047467;28;20186;-84
2023/09/10 02:44:59;;;;;;;10.53;9.70;;;;;;;13.44;72.96;93227.97;5048933;28;20253;-83
2023/09/10 02:47:24;;;;;;;9.67;9.10;;;;;;;13.43;73.22;93221.13;5036250;28;20226;-84
2023/09/10 02:49:50;;;;;;;9.83;9.03;;;;;;;13.41;73.22;93223.28;5048380;28;20206;-85
2023/09/10 02:52:15;;;;;;;9.13;8.63;;;;;;;13.40;75.21;93229.56;5044120;28;20293;-86
2023/09/10 02:54:40;;;;;;;10.47;9.90;;;;;;;13.24;75.70;93230.03;5052958;28;20198;-86
2023/09/10 02:57:06;;;;;;;10.60;10.00;;;;;;;13.41;75.26;93223.28;5071184;28;20229;-85
2023/09/10 02:59:31;;;;;;;10.20;9.33;;;;;;;13.40;74.36;93216.47;5072818;28;20220;-86
2023/09/10 03:01:57;;;;;;;9.60;9.00;;;;;;;13.32;73.97;93217.09;5072065;28;20232;-85
2023/09/10 03:04:22;;;;;;;9.73;9.20;;;;;;;13.30;71.48;93229.69;5072357;28;20206;-83
2023/09/10 03:06:49;;;;;;;10.80;10.10;;;;;;;13.26;71.05;93228.69;5072224;28;20220;-84
2023/09/10 03:09:16;;;;;;;10.10;9.53;;;;;;;13.27;72.18;93219.78;5067988;28;20185;-85
2023/09/10 03:11:43;;;;;;;10.47;9.70;;;;;;;13.26;72.12;93233.94;5071663;28;20232;-84
2023/09/10 03:14:09;;;;;;;11.30;10.10;;;;;;;13.33;71.01;93230.97;5072774;28;20200;-86
2023/09/10 03:16:40;;;;;;;15.00;10.33;;;;;;;13.31;72.11;93236.50;5071437;28;20236;-85
2023/09/10 03:19:06;;;;;;;9.43;8.83;;;;;;;13.27;72.63;93239.97;5072529;28;20217;-86
2023/09/10 03:21:31;;;;;;;10.73;10.03;;;;;;;13.35;71.97;93244.59;5072048;28;20247;-84
2023/09/10 03:23:57;;;;;;;9.73;9.10;;;;;;;13.34;71.66;93238.56;5072825;28;20182;-86
2023/09/10 03:26:22;;;;;;;10.30;9.60;;;;;;;13.26;70.98;93241.78;5059078;28;20237;-85
2023/09/10 03:28:48;;;;;;;10.00;9.30;;;;;;;13.09;72.24;93236.22;5053650;28;20190;-85
2023/09/10 03:31:14;;;;;;;10.30;9.67;;;;;;;13.19;71.48;93243.97;5051482;28;20240;-85
2023/09/10 03:33:40;;;;;;;10.03;9.10;;;;;;;13.17;72.21;93235.59;5051719;28;20197;-85
2023/09/10 03:36:06;;;;;;;11.03;10.13;;;;;;;13.08;73.26;93239.91;5051305;28;20224;-85
2023/09/10 03:38:31;;;;;;;9.50;9.00;;;;;;;12.96;75.12;93221.13;5052526;28;20221;-85
2023/09/10 03:40:57;;;;;;;8.90;8.40;;;;;;;13.14;73.10;93236.16;5060330;28;20240;-86
2023/09/10 03:43:22;;;;;;;10.23;9.03;;;;;;;13.01;73.81;93231.59;5072216;28;20196;-83
2023/09/10 03:45:47;;;;;;;14.90;10.33;;;;;;;13.01;79.10;93238.66;5071381;28;20225;-85
2023/09/10 03:48:13;;;;;;;10.03;9.33;;;;;;;12.96;76.67;93247.34;5071512;28;20213;-84
2023/09/10 03:50:38;;;;;;;10.70;9.90;;;;;;;12.93;77.58;93256.50;5071293;28;20233;-85
2023/09/10 03:53:03;;;;;;;10.33;9.23;;;;;;;12.88;75.05;93248.72;5071903;28;20269;-85
2023/09/10 03:55:29;;;;;;;10.73;9.70;;;;;;;12.98;77.09;93266.16;5071506;28;20247;-85
2023/09/10 03:57:54;;;;;;;9.67;9.17;;;;;;;12.94;74.90;93262.56;5071921;28;20215;-85
2023/09/10 04:00:20;;;;;;;10.73;9.93;;;;;;;12.89;76.25;93259.97;5071347;28;20224;-85
2023/09/10 04:02:46;;;;;;;11.00;10.20;;;;;;;13.00;75.10;93274.56;5070138;28;20717;-84
2023/09/10 04:05:13;;;;;;;9.73;9.03;;;;;;;12.91;74.39;93263.91;5071336;28;20245;-84
2023/09/10 04:07:38;;;;;;;11.10;10.03;;;;;;;12.87;74.20;93251.63;5071377;28;20213;-85
2023/09/10 04:10:07;;;;;;;11.43;10.43;;;;;;;12.95;74.51;93261.47;5071224;28;20216;-83
2023/09/10 04:12:34;;;;;;;11.63;10.43;;;;;;;13.01;74.08;93262.25;5071440;28;20223;-84
2023/09/10 04:14:59;;;;;;;11.00;10.23;;;;;;;12.95;74.96;93259.66;5070929;28;20194;-83
2023/09/10 04:17:28;;;;;;;10.67;9.80;;;;;;;12.81;77.86;93256.13;5071620;28;20178;-85
2023/09/10 04:19:54;;;;;;;17.20;10.53;;;;;;;12.89;76.98;93257.34;5070712;28;20189;-78
2023/09/10 04:22:19;;;;;;;10.87;10.17;;;;;;;12.97;77.09;93254.13;5071268;28;20220;-80
2023/09/10 04:24:45;;;;;;;11.83;10.70;;;;;;;13.16;76.90;93257.66;5070217;28;20177;-85
2023/09/10 04:27:10;;;;;;;10.23;9.43;;;;;;;13.10;79.42;93266.63;5071240;28;20229;-86
2023/09/10 04:29:35;;;;;;;11.07;10.10;;;;;;;13.20;77.89;93268.38;5067698;28;20194;-83
2023/09/10 04:32:01;;;;;;;10.70;9.93;;;;;;;13.27;78.89;93269.59;5061972;28;20285;-85
2023/09/10 04:34:26;;;;;;;10.43;9.67;;;;;;;13.29;77.83;93274.56;5071576;28;20186;-85
2023/09/10 04:36:52;;;;;;;10.50;9.73;;;;;;;13.35;78.56;93266.38;5069876;28;20281;-85
2023/09/10 04:39:17;;;;;;;10.07;9.30;;;;;;;13.37;76.52;93271.34;5070821;28;20209;-85
2023/09/10 04:41:43;;;;;;;10.63;9.67;;;;;;;13.41;74.22;93262.63;5070144;28;20281;-83
2023/09/10 04:44:08;;;;;;;10.83;9.90;;;;;;;13.61;74.66;93272.88;5070552;28;20189;-86
2023/09/10 04:46:33;;;;;;;10.83;10.07;;;;;;;13.66;73.12;93272.84;5070369;28;20232;-85
2023/09/10 04:48:59;;;;;;;9.37;8.77;;;;;;;13.79;71.63;93276.63;5070278;28;20289;-86
2023/09/10 04:51:24;;;;;;;10.07;9.27;;;;;;;13.81;71.63;93266.59;5070420;28;20225;-86
2023/09/10 04:53:50;;;;;;;9.17;8.47;;;;;;;13.91;71.63;93269.91;5070783;28;20229;-83
2023/09/10 04:56:15;;;;;;;9.47;8.80;;;;;;;14.03;70.58;93272.09;5071020;28;20217;-85
2023/09/10 04:58:41;;;;;;;11.53;10.30;;;;;;;14.09;71.50;93269.13;5069985;28;20181;-86
2023/09/10 05:01:07;;;;;;;10.10;9.23;;;;;;;14.09;67.08;93270.97;5060291;28;20230;-83
2023/09/10 05:03:32;;;;;;;11.03;9.13;;;;;;;14.21;71.88;93279.97;5038097;28;20193;-85
2023/09/10 05:05:59;;;;;;;10.00;9.40;;;;;;;14.33;71.18;93280.34;5058099;28;20233;-85
2023/09/10 05:08:26;;;;;;;9.87;9.07;;;;;;;14.40;70.83;93283.44;5069843;28;20185;-84
2023/09/10 05:10:51;;;;;;;9.80;8.80;;;;;;;14.46;70.64;93282.28;5069908;28;20225;-86
2023/09/10 05:13:17;;;;;;;9.33;8.50;;;;;;;14.53;69.43;93287.19;5069316;28;20169;-85
2023/09/10 05:15:45;;;;;;;9.80;9.00;;;;;;;14.59;68.94;93287.88;5069099;28;20557;-84
2023/09/10 05:18:11;;;;;;;8.97;8.47;;;;;;;14.67;68.98;93287.22;5070186;28;20185;-80
2023/09/10 05:20:36;;;;;;;9.60;8.83;;;;;;;14.78;69.08;93280.75;5067698;28;20293;-84
2023/09/10 05:23:01;;;;;;;10.20;9.47;;;;;;;14.79;68.52;93284.94;5069546;28;20185;-84
2023/09/10 05:25:27;;;;;;;9.87;9.07;;;;;;;14.87;68.70;93286.91;5064988;28;20237;-85
2023/09/10 05:27:52;;;;;;;9.53;8.80;;;;;;;14.87;68.19;93292.16;5049992;28;20196;-85
2023/09/10 05:30:18;;;;;;;9.33;8.33;;;;;;;15.01;66.90;93288.53;5049627;28;20292;-85
2023/09/10 05:32:43;;;;;;;9.87;9.03;;;;;;;15.30;65.07;93301.44;5049723;28;20254;-85
2023/09/10 05:35:10;;;;;;;9.87;9.03;;;;;;;15.43;64.71;93300.69;5051647;28;20192;-85
2023/09/10 05:37:35;;;;;;;9.40;8.80;;;;;;;15.46;64.91;93300.91;5069011;28;20189;-84
2023/09/10 05:40:01;;;;;;;9.43;8.93;;;;;;;15.39;66.64;93305.00;5069733;28;21643;-84
2023/09/10 05:42:26;;;;;;;9.13;8.60;;;;;;;15.46;66.19;93303.53;5069468;28;20186;-85
2023/09/10 05:44:52;;;;;;;8.97;8.13;;;;;;;15.42;67.32;93293.88;5069847;28;20186;-82
2023/09/10 05:47:19;;;;;;;9.63;8.93;;;;;;;15.65;66.42;93301.63;5069388;28;20245;-85
2023/09/10 05:49:47;;;;;;;9.40;8.57;;;;;;;15.53;65.15;93311.06;5069648;28;20185;-85
2023/09/10 05:52:12;;;;;;;9.97;9.13;;;;;;;15.72;63.72;93314.41;5049873;28;20225;-85
2023/09/10 05:54:39;;;;;;;11.23;8.97;;;;;;;15.71;63.46;93304.91;5050011;28;20206;-87
2023/09/10 05:57:04;;;;;;;9.57;8.90;;;;;;;15.69;63.71;93309.69;5066582;28;20248;-86
2023/09/10 05:59:29;;;;;;;9.83;9.13;;;;;;;16.05;63.47;93307.91;5069448;28;20197;-86
2023/09/10 06:01:55;;;;;;;11.13;10.20;;;;;;;16.21;61.65;93318.94;5068715;28;20288;-80
2023/09/10 06:04:20;;;;;;;10.40;9.80;;;;;;;16.24;61.54;93311.22;5069474;28;20249;-86
2023/09/10 06:06:46;;;;;;;10.00;9.20;;;;;;;16.36;61.39;93319.38;5068104;28;20221;-85
2023/09/10 06:09:11;;;;;;;8.83;8.00;;;;;;;15.96;62.97;93272.81;5069617;28;20200;-86
2023/09/10 06:11:36;;;;;;;10.37;9.67;;;;;;;16.43;61.05;93322.41;5068590;28;20214;-86
2023/09/10 06:14:02;;;;;;;9.20;8.60;;;;;;;16.63;60.55;93314.09;5069436;28;20185;-81
2023/09/10 06:16:28;;;;;;;9.90;9.27;;;;;;;16.62;61.33;93317.81;5068472;28;20247;-86
2023/09/10 06:18:53;;;;;;;9.80;9.00;;;;;;;16.55;62.21;93314.78;5069493;28;20236;-86
2023/09/10 06:21:18;;;;;;;9.63;8.93;;;;;;;17.00;60.61;93321.66;5066663;28;20298;-86
2023/09/10 06:23:44;;;;;;;10.17;9.20;;;;;;;17.10;60.76;93326.72;5068874;28;20201;-86
2023/09/10 06:26:09;;;;;;;11.23;9.60;;;;;;;17.44;59.08;93334.09;5067879;28;20248;-87
2023/09/10 06:28:34;;;;;;;10.03;9.33;;;;;;;17.55;57.33;93328.25;5069599;28;20198;-86
2023/09/10 06:31:00;;;;;;;10.83;9.90;;;;;;;17.52;57.85;93334.13;5054294;28;20229;-86
2023/09/10 06:33:26;;;;;;;11.33;10.13;;;;;;;17.55;57.63;93330.88;5069022;28;20204;-84
2023/09/10 06:35:51;;;;;;;10.70;9.30;;;;;;;17.40;58.75;93325.94;5068446;28;20220;-87
2023/09/10 06:38:17;;;;;;;9.43;8.83;;;;;;;17.72;57.98;93334.69;5067919;28;20200;-86
2023/09/10 06:40:43;;;;;;;10.60;9.70;;;;;;;17.96;56.77;93333.22;5068106;28;20231;-81
2023/09/10 06:43:09;;;;;;;9.30;8.50;;;;;;;17.90;57.38;93341.59;5068857;28;20181;-86
2023/09/10 06:45:35;;;;;;;10.93;10.13;;;;;;;17.59;57.20;93323.13;5064209;28;20236;-86
2023/09/10 06:48:00;;;;;;;9.50;8.80;;;;;;;18.12;56.80;93334.38;5068514;28;20214;-86
2023/09/10 06:50:26;;;;;;;13.87;9.00;;;;;;;18.47;54.71;93322.84;5068208;28;20252;-85
2023/09/10 06:52:51;;;;;;;9.77;8.90;;;;;;;18.58;53.91;93331.25;5068746;28;20190;-85
2023/09/10 06:55:16;;;;;;;9.37;8.77;;;;;;;18.67;53.45;93324.88;5068406;28;20217;-85
2023/09/10 06:57:42;;;;;;;9.50;8.73;;;;;;;18.78;53.09;93335.91;5069215;28;20348;-85
2023/09/10 07:00:08;;;;;;;9.23;8.50;;;;;;;18.87;53.23;93339.34;5067941;28;20186;-85
2023/09/10 07:02:34;;;;;;;9.87;9.17;;;;;;;18.71;54.76;93330.28;5068343;28;20189;-86
2023/09/10 07:04:59;;;;;;;9.27;8.57;;;;;;;18.84;54.38;93334.66;5068062;28;20245;-83
2023/09/10 07:07:24;;;;;;;10.30;9.60;;;;;;;18.85;54.57;93341.50;5068575;28;20179;-84
2023/09/10 07:09:50;;;;;;;9.43;8.63;;;;;;;18.99;52.77;93339.50;5068156;28;20272;-86
2023/09/10 07:12:15;;;;;;;8.57;7.93;;;;;;;19.16;52.65;93347.41;5065153;28;20917;-85
2023/09/10 07:14:42;;;;;;;9.63;8.67;;;;;;;19.36;51.25;93341.53;5067815;28;20202;-86
2023/09/10 07:17:08;;;;;;;9.33;8.63;;;;;;;19.49;50.53;93335.25;5068746;28;20245;-87
2023/09/10 07:19:33;;;;;;;9.63;8.87;;;;;;;19.53;49.16;93352.09;5068059;28;20188;-86
2023/09/10 07:21:59;;;;;;;9.43;8.73;;;;;;;19.15;51.04;93343.22;5068556;28;20673;-86
2023/09/10 07:24:24;;;;;;;12.60;8.27;;;;;;;19.07;51.83;93342.16;5067851;28;20265;-86
2023/09/10 07:26:50;;;;;;;8.97;8.30;;;;;;;19.39;51.15;93348.84;5056339;28;20209;-87
2023/09/10 07:29:16;;;;;;;8.70;8.00;;;;;;;19.56;50.24;93348.03;5068788;28;20182;-86
2023/09/10 07:31:42;;;;;;;8.20;7.50;;;;;;;19.70;49.63;93346.75;5067865;28;20231;-85
2023/09/10 07:34:09;;;;;;;9.50;8.83;;;;;;;19.74;51.18;93347.66;5067517;28;20215;-86
2023/09/10 07:36:35;;;;;;;8.37;7.77;;;;;;;19.53;50.04;93346.81;5056683;28;20232;-80
2023/09/10 07:39:00;;;;;;;8.23;7.63;;;;;;;19.78;50.51;93348.56;5072049;28;20175;-86
2023/09/10 07:41:26;;;;;;;11.13;7.97;;;;;;;19.75;49.44;93349.22;5071748;28;20239;-85
2023/09/10 07:43:51;;;;;;;12.83;8.63;;;;;;;19.96;48.54;93342.16;5071787;28;20423;-86
2023/09/10 07:46:16;;;;;;;9.73;8.93;;;;;;;19.98;47.97;93332.00;5071237;28;20222;-85
2023/09/10 07:48:42;;;;;;;10.67;8.87;;;;;;;20.17;48.40;93337.69;5071503;28;20904;-81
2023/09/10 07:51:07;;;;;;;8.33;7.83;;;;;;;20.17;49.23;93326.34;5071423;28;20223;-85
2023/09/10 07:53:33;;;;;;;9.70;9.00;;;;;;;20.50;47.94;93338.63;5071487;28;20222;-85
2023/09/10 07:55:59;;;;;;;9.40;8.60;;;;;;;20.81;46.93;93342.81;5071565;28;20225;-86
2023/09/10 07:58:24;;;;;;;9.70;8.60;;;;;;;21.12;46.02;93340.56;5071520;28;20191;-86
2023/09/10 08:00:55;;;;;;;10.53;8.63;;;;;;;21.15;45.66;93337.25;5051446;28;20228;-85
2023/09/10 08:03:20;;;;;;;9.73;8.77;;;;;;;21.37;44.63;93340.31;5069075;28;20180;-85
2023/09/10 08:05:46;;;;;;;9.73;9.02;;;;;;;21.42;43.61;93328.72;5071090;28;20227;-82
2023/09/10 08:08:11;;;;;;;9.10;8.50;;;;;;;21.45;42.77;93333.38;5071525;28;20214;-86
2023/09/10 08:10:37;;;;;;;9.15;8.55;;;;;;;21.15;43.82;93329.28;5069782;28;20232;-85
2023/09/10 08:13:03;;;;;;;11.13;9.57;;;;;;;21.40;43.93;93336.25;5071443;28;20283;-86
2023/09/10 08:15:30;;;;;;;9.27;8.57;;;;;;;21.49;44.24;93323.66;5070366;28;20216;-84
2023/09/10 08:17:57;;;;;;;9.83;8.87;;;;;;;21.83;42.92;93341.94;5070833;28;20204;-85
2023/09/10 08:20:23;;;;;;;9.90;9.07;;;;;;;22.01;41.98;93340.63;5070826;28;20229;-84
2023/09/10 08:22:48;;;;;;;9.48;8.85;;;;;;;22.22;42.03;93343.97;5070983;28;20189;-85
2023/09/10 08:25:14;;;;;;;9.13;8.38;;;;;;;22.16;41.31;93340.75;5069793;28;20233;-85
2023/09/10 08:27:40;;;;;;;10.27;9.40;;;;;;;22.07;42.35;93331.34;5071597;28;20172;-87
2023/09/10 08:30:07;;;;;;;9.80;9.15;;;;;;;22.18;42.42;93332.44;5071033;28;20227;-86
2023/09/10 08:32:33;;;;;;;11.00;10.00;;;;;;;22.43;41.98;93339.31;5071089;28;20189;-86
2023/09/10 08:34:59;;;;;;;10.38;9.38;;;;;;;22.38;40.95;93296.97;5058604;28;20754;-83
2023/09/10 08:37:24;;;;;;;10.07;9.45;;;;;;;22.54;41.30;93340.44;5050586;28;20193;-86
2023/09/10 08:39:50;;;;;;;9.93;8.95;;;;;;;22.67;39.97;93339.34;5051156;28;20209;-86
2023/09/10 08:42:44;;;;;;;9.68;8.73;;;;;;;22.53;41.47;93343.44;5069566;28;20475;-85
2023/09/10 08:45:11;;;;;;;10.68;9.82;;;;;;;22.65;42.11;93341.56;5060655;28;20229;-85
2023/09/10 08:47:43;;;;;;;10.65;9.73;;;;;;;22.74;40.86;93338.78;5070075;28;20218;-84
2023/09/10 08:50:13;;;;;;;10.88;10.10;;;;;;;22.70;43.96;93338.66;5069135;28;20271;-86
2023/09/10 08:52:41;;;;;;;10.77;9.75;;;;;;;22.83;42.33;93342.88;5070363;28;20188;-84
2023/09/10 08:55:08;;;;;;;11.00;10.10;;;;;;;22.98;41.28;93341.38;5070431;28;20207;-85
2023/09/10 08:57:36;;;;;;;10.05;9.15;;;;;;;22.84;42.28;93330.31;5070507;28;20206;-86
2023/09/10 09:00:05;;;;;;;10.82;9.80;;;;;;;22.94;42.01;93337.84;5072597;28;20244;-85
2023/09/10 09:02:32;;;;;;;10.32;9.32;;;;;;;23.20;40.77;93340.88;5071973;28;21073;-85
2023/09/10 09:04:57;;;;;;;10.32;9.52;;;;;;;23.10;41.47;93346.66;5070069;28;20243;-86
2023/09/10 09:07:31;;;;;;;11.05;10.15;;;;;;;23.14;40.05;93335.03;5070038;28;20204;-86
2023/09/10 09:10:00;;;;;;;10.38;9.50;;;;;;;23.04;41.71;93326.72;5069447;28;20214;-85
2023/09/10 09:12:27;;;;;;;10.27;9.60;;;;;;;22.99;42.18;93335.72;5049658;28;20184;-85
2023/09/10 09:14:54;;;;;;;10.07;9.15;;;;;;;23.17;40.58;93330.91;5049845;28;20186;-86
2023/09/10 09:17:20;;;;;;;9.77;8.88;;;;;;;23.22;41.87;93331.41;5069566;28;20227;-85
2023/09/10 09:19:49;;;;;;;10.65;9.82;;;;;;;23.35;41.53;93326.84;5069832;28;20207;-86
2023/09/10 09:22:19;;;;;;;11.15;10.15;;;;;;;23.36;41.46;93328.41;5069524;28;21643;-85
2023/09/10 09:24:47;;;;;;;10.27;9.48;;;;;;;23.31;40.71;93320.66;5069817;28;20184;-87
2023/09/10 09:27:13;;;;;;;10.32;9.43;;;;;;;23.42;40.79;93330.50;5069949;28;20220;-85
2023/09/10 09:29:38;;;;;;;11.18;10.45;;;;;;;23.58;40.93;93336.63;5070218;28;20190;-86
2023/09/10 09:32:04;;;;;;;9.68;8.82;;;;;;;23.54;39.78;93332.31;5051629;28;20227;-85
2023/09/10 09:34:32;;;;;;;10.70;9.80;;;;;;;23.47;40.54;93326.81;5049865;28;20188;-85
2023/09/10 09:36:57;;;;;;;10.30;9.60;;;;;;;23.37;41.51;93319.31;5038748;28;20232;-86
2023/09/10 09:39:22;;;;;;;10.50;9.32;;;;;;;23.49;41.97;93327.22;5047396;28;20179;-85
2023/09/10 09:41:51;;;;;;;10.82;9.93;;;;;;;23.45;41.17;93327.16;5065419;28;20223;-86
2023/09/10 09:44:18;;;;;;;10.95;9.77;;;;;;;23.57;41.48;93319.09;5069416;28;20176;-85
2023/09/10 09:46:45;;;;;;;11.75;10.18;;;;;;;23.64;40.20;93318.50;5069317;28;20224;-86
2023/09/10 09:49:10;;;;;;;10.82;9.82;;;;;;;23.67;39.39;93318.59;5068780;28;20223;-84
2023/09/10 09:51:39;;;;;;;10.50;9.35;;;;;;;23.77;39.57;93311.22;5069133;28;20251;-85
2023/09/10 09:54:07;;;;;;;10.45;9.57;;;;;;;23.91;39.50;93316.91;5069761;28;20192;-86
2023/09/10 09:56:32;;;;;;;10.77;9.80;;;;;;;24.07;38.42;93317.72;5069220;28;20769;-85
2023/09/10 09:59:02;;;;;;;10.23;9.45;;;;;;;24.04;39.25;93311.19;5069853;28;20189;-85
2023/09/10 10:01:28;;;;;;;10.68;9.63;;;;;;;23.96;39.11;93309.44;5068844;28;20254;-84
2023/09/10 10:03:54;;;;;;;9.82;9.13;;;;;;;23.99;38.38;93314.09;5068795;28;20188;-81
2023/09/10 10:06:19;;;;;;;10.25;9.32;;;;;;;23.77;38.32;93307.44;5057224;28;20242;-85
2023/09/10 10:08:51;;;;;;;9.88;9.07;;;;;;;23.82;38.94;93305.63;5048906;28;20266;-83
2023/09/10 10:11:30;;;;;;;9.85;8.85;;;;;;;23.86;38.55;93309.16;5057311;28;20318;-85
2023/09/10 10:14:00;;;;;;;10.35;9.35;;;;;;;23.68;38.56;93304.16;5069026;28;20206;-84
2023/09/10 10:16:30;;;;;;;10.30;9.50;;;;;;;23.89;39.26;93303.13;5068718;28;20718;-85
2023/09/10 10:18:56;;;;;;;10.02;9.25;;;;;;;24.10;38.85;93306.34;5056695;28;20258;-85
2023/09/10 10:21:22;;;;;;;11.02;10.13;;;;;;;24.25;38.00;93300.25;5068710;28;20230;-83
2023/09/10 10:23:48;;;;;;;10.90;9.93;;;;;;;24.25;38.63;93294.91;5068759;28;20213;-85
2023/09/10 10:26:16;;;;;;;9.77;9.07;;;;;;;24.13;37.40;93303.78;5068680;28;20250;-84
2023/09/10 10:28:43;;;;;;;10.55;9.75;;;;;;;24.29;39.31;93296.53;5070642;28;20202;-85
2023/09/10 10:31:16;;;;;;;10.00;8.93;;;;;;;24.51;37.78;93297.78;5068702;28;20243;-85
2023/09/10 10:33:56;;;;;;;10.18;9.27;;;;;;;24.84;36.58;93284.81;5068700;28;20198;-83
2023/09/10 10:36:36;;;;;;;9.98;9.07;;;;;;;24.69;37.54;93283.72;5056184;28;20230;-86
2023/09/10 10:39:08;;;;;;;10.57;9.68;;;;;;;24.33;36.51;93269.94;5048868;28;20230;-85
2023/09/10 10:41:37;;;;;;;10.45;9.43;;;;;;;24.30;38.26;93265.25;5048773;28;20227;-85
2023/09/10 10:44:12;;;;;;;10.82;10.00;;;;;;;24.29;36.97;93271.72;5049001;28;20181;-86
2023/09/10 10:46:41;;;;;;;10.38;9.57;;;;;;;24.50;36.87;93283.66;5063071;28;20248;-84
2023/09/10 10:49:07;;;;;;;9.35;8.65;;;;;;;24.15;37.64;93279.41;5068662;28;20287;-83
2023/09/10 10:51:40;;;;;;;10.05;9.25;;;;;;;24.30;37.77;93275.94;5068283;28;20223;-88
2023/09/10 10:54:06;;;;;;;10.27;9.30;;;;;;;24.61;36.83;93273.19;5068784;28;20192;-82
2023/09/10 10:56:32;;;;;;;10.80;9.75;;;;;;;24.69;38.18;93266.94;5068617;28;20824;-85
2023/09/10 10:58:57;;;;;;;9.77;8.85;;;;;;;24.84;36.98;93258.84;5068664;28;20256;-85
2023/09/10 11:01:23;;;;;;;10.98;10.07;;;;;;;24.76;38.33;93265.19;5055827;28;20228;-84
2023/09/10 11:03:49;;;;;;;10.32;9.63;;;;;;;24.87;37.74;93255.47;5048342;28;20189;-85
2023/09/10 11:06:14;;;;;;;10.25;9.35;;;;;;;24.95;38.63;93257.19;5059308;28;20220;-84
2023/09/10 11:08:41;;;;;;;10.40;9.60;;;;;;;24.95;41.08;93254.50;5067396;28;20188;-80
2023/09/10 11:11:30;;;;;;;10.15;9.15;;;;;;;25.00;36.80;93253.44;5068380;28;20233;-81
2023/09/10 11:14:05;;;;;;;10.60;9.73;;;;;;;24.70;37.39;93252.47;5062297;28;20182;-83
2023/09/10 11:16:42;;;;;;;10.27;9.48;;;;;;;24.54;37.66;93241.81;5071578;28;20230;-81
2023/09/10 11:19:44;;;;;;;10.43;9.45;;;;;;;24.47;37.91;93246.19;5072926;28;20189;-82
2023/09/10 11:22:09;;;;;;;10.00;9.30;;;;;;;24.57;37.59;93243.00;5063634;28;20227;-83
2023/09/10 11:24:36;;;;;;;10.45;9.55;;;;;;;24.46;38.24;93228.63;5071434;28;20218;-81
2023/09/10 11:27:21;;;;;;;11.02;10.05;;;;;;;24.42;37.80;93203.78;5054170;28;20224;-86